sensor_id;sensor_type;location;lat;lon;timestamp;P1;durP1;ratioP1;P2;durP2;ratioP2
4867;SDS011;2448;48.086;10.862;2022-08-18T00:00:29;6.40;;;3.97;;
4867;SDS011;2448;48.086;10.862;2022-08-18T00:02:54;4.67;;;3.73;;
4867;SDS011;2448;48.086;10.862;2022-08-18T00:05:21;7.97;;;4.17;;
4867;SDS011;2448;48.086;10.862;2022-08-18T00:07:46;5.80;;;3.90;;
4867;SDS011;2448;48.086;10.862;2022-08-18T00:10:11;6.30;;;4.27;;
4867;SDS011;2448;48.086;10.862;2022-08-18T00:12:38;5.03;;;3.60;;
4867;SDS011;2448;48.086;10.862;2022-08-18T00:15:05;6.30;;;4.63;;
4867;SDS011;2448;48.086;10.862;2022-08-18T00:17:31;9.40;;;4.60;;
4867;SDS011;2448;48.086;10.862;2022-08-18T00:19:57;7.30;;;4.90;;
4867;SDS011;2448;48.086;10.862;2022-08-18T00:22:23;5.17;;;3.97;;
4867;SDS011;2448;48.086;10.862;2022-08-18T00:24:49;4.60;;;3.63;;
4867;SDS011;2448;48.086;10.862;2022-08-18T00:27:16;6.37;;;4.10;;
4867;SDS011;2448;48.086;10.862;2022-08-18T00:29:45;4.13;;;3.53;;
4867;SDS011;2448;48.086;10.862;2022-08-18T00:32:12;5.17;;;4.07;;
4867;SDS011;2448;48.086;10.862;2022-08-18T00:34:38;5.17;;;3.77;;
4867;SDS011;2448;48.086;10.862;2022-08-18T00:37:03;5.60;;;3.80;;
4867;SDS011;2448;48.086;10.862;2022-08-18T00:39:28;4.97;;;3.30;;
4867;SDS011;2448;48.086;10.862;2022-08-18T00:41:54;7.07;;;3.53;;
4867;SDS011;2448;48.086;10.862;2022-08-18T00:44:20;3.40;;;3.10;;
4867;SDS011;2448;48.086;10.862;2022-08-18T00:46:45;3.70;;;2.90;;
4867;SDS011;2448;48.086;10.862;2022-08-18T00:49:11;3.80;;;2.90;;
4867;SDS011;2448;48.086;10.862;2022-08-18T00:54:03;4.77;;;2.80;;
4867;SDS011;2448;48.086;10.862;2022-08-18T00:56:33;6.37;;;3.70;;
4867;SDS011;2448;48.086;10.862;2022-08-18T00:59:43;3.60;;;3.30;;
4867;SDS011;2448;48.086;10.862;2022-08-18T01:01:48;4.70;;;3.60;;
4867;SDS011;2448;48.086;10.862;2022-08-18T01:04:18;6.13;;;3.20;;
4867;SDS011;2448;48.086;10.862;2022-08-18T01:06:53;3.10;;;2.63;;
4867;SDS011;2448;48.086;10.862;2022-08-18T01:09:19;3.37;;;2.60;;
4867;SDS011;2448;48.086;10.862;2022-08-18T01:11:44;5.23;;;3.37;;
4867;SDS011;2448;48.086;10.862;2022-08-18T01:14:10;3.27;;;2.70;;
4867;SDS011;2448;48.086;10.862;2022-08-18T01:16:40;5.43;;;3.00;;
4867;SDS011;2448;48.086;10.862;2022-08-18T01:19:24;3.47;;;2.90;;
4867;SDS011;2448;48.086;10.862;2022-08-18T01:24:58;3.27;;;2.53;;
4867;SDS011;2448;48.086;10.862;2022-08-18T01:27:43;4.87;;;2.77;;
4867;SDS011;2448;48.086;10.862;2022-08-18T01:30:10;7.30;;;3.30;;
4867;SDS011;2448;48.086;10.862;2022-08-18T01:32:36;2.60;;;2.30;;
4867;SDS011;2448;48.086;10.862;2022-08-18T01:35:02;3.90;;;3.00;;
4867;SDS011;2448;48.086;10.862;2022-08-18T01:37:27;4.53;;;2.87;;
4867;SDS011;2448;48.086;10.862;2022-08-18T01:39:53;2.30;;;2.10;;
4867;SDS011;2448;48.086;10.862;2022-08-18T01:42:18;2.73;;;2.53;;
4867;SDS011;2448;48.086;10.862;2022-08-18T01:44:44;2.57;;;2.37;;
4867;SDS011;2448;48.086;10.862;2022-08-18T01:47:12;2.23;;;2.03;;
4867;SDS011;2448;48.086;10.862;2022-08-18T01:49:38;2.20;;;2.00;;
4867;SDS011;2448;48.086;10.862;2022-08-18T01:52:07;2.47;;;2.37;;
4867;SDS011;2448;48.086;10.862;2022-08-18T01:54:33;3.23;;;2.93;;
4867;SDS011;2448;48.086;10.862;2022-08-18T01:56:58;4.40;;;2.73;;
4867;SDS011;2448;48.086;10.862;2022-08-18T01:59:24;4.40;;;2.93;;
4867;SDS011;2448;48.086;10.862;2022-08-18T02:01:49;2.97;;;2.73;;
4867;SDS011;2448;48.086;10.862;2022-08-18T02:04:26;4.80;;;3.33;;
4867;SDS011;2448;48.086;10.862;2022-08-18T02:06:53;3.13;;;2.83;;
4867;SDS011;2448;48.086;10.862;2022-08-18T02:09:20;5.93;;;3.90;;
4867;SDS011;2448;48.086;10.862;2022-08-18T02:11:46;3.30;;;2.43;;
4867;SDS011;2448;48.086;10.862;2022-08-18T02:14:11;3.17;;;2.90;;
4867;SDS011;2448;48.086;10.862;2022-08-18T02:16:38;4.53;;;3.23;;
4867;SDS011;2448;48.086;10.862;2022-08-18T02:19:03;4.33;;;2.80;;
4867;SDS011;2448;48.086;10.862;2022-08-18T02:21:29;3.30;;;2.97;;
4867;SDS011;2448;48.086;10.862;2022-08-18T02:23:54;3.13;;;2.80;;
4867;SDS011;2448;48.086;10.862;2022-08-18T02:26:20;4.00;;;2.37;;
4867;SDS011;2448;48.086;10.862;2022-08-18T02:28:46;3.70;;;2.93;;
4867;SDS011;2448;48.086;10.862;2022-08-18T02:31:13;6.93;;;3.47;;
4867;SDS011;2448;48.086;10.862;2022-08-18T02:33:39;10.70;;;2.70;;
4867;SDS011;2448;48.086;10.862;2022-08-18T02:36:05;2.37;;;2.17;;
4867;SDS011;2448;48.086;10.862;2022-08-18T02:38:31;6.70;;;3.10;;
4867;SDS011;2448;48.086;10.862;2022-08-18T02:40:57;6.00;;;2.67;;
4867;SDS011;2448;48.086;10.862;2022-08-18T02:43:23;3.20;;;2.90;;
4867;SDS011;2448;48.086;10.862;2022-08-18T02:45:49;4.67;;;3.07;;
4867;SDS011;2448;48.086;10.862;2022-08-18T02:48:14;4.83;;;3.50;;
4867;SDS011;2448;48.086;10.862;2022-08-18T02:50:40;2.73;;;2.47;;
4867;SDS011;2448;48.086;10.862;2022-08-18T02:53:12;3.67;;;2.70;;
4867;SDS011;2448;48.086;10.862;2022-08-18T02:55:45;5.87;;;3.37;;
4867;SDS011;2448;48.086;10.862;2022-08-18T02:58:10;3.80;;;3.20;;
4867;SDS011;2448;48.086;10.862;2022-08-18T03:00:37;3.27;;;2.53;;
4867;SDS011;2448;48.086;10.862;2022-08-18T03:03:03;3.90;;;2.97;;
4867;SDS011;2448;48.086;10.862;2022-08-18T03:05:28;3.30;;;3.00;;
4867;SDS011;2448;48.086;10.862;2022-08-18T03:07:54;3.77;;;2.57;;
4867;SDS011;2448;48.086;10.862;2022-08-18T03:10:20;2.60;;;2.40;;
4867;SDS011;2448;48.086;10.862;2022-08-18T03:12:45;4.97;;;3.17;;
4867;SDS011;2448;48.086;10.862;2022-08-18T03:15:11;3.30;;;2.97;;
4867;SDS011;2448;48.086;10.862;2022-08-18T03:17:37;2.67;;;2.10;;
4867;SDS011;2448;48.086;10.862;2022-08-18T03:20:03;3.27;;;2.27;;
4867;SDS011;2448;48.086;10.862;2022-08-18T03:22:28;3.60;;;2.30;;
4867;SDS011;2448;48.086;10.862;2022-08-18T03:24:54;4.60;;;2.97;;
4867;SDS011;2448;48.086;10.862;2022-08-18T03:27:19;3.40;;;3.00;;
4867;SDS011;2448;48.086;10.862;2022-08-18T03:29:44;3.10;;;2.80;;
4867;SDS011;2448;48.086;10.862;2022-08-18T03:32:10;8.07;;;2.83;;
4867;SDS011;2448;48.086;10.862;2022-08-18T03:34:35;2.40;;;2.20;;
4867;SDS011;2448;48.086;10.862;2022-08-18T03:37:00;2.80;;;2.50;;
4867;SDS011;2448;48.086;10.862;2022-08-18T03:39:26;2.60;;;2.40;;
4867;SDS011;2448;48.086;10.862;2022-08-18T03:41:52;4.73;;;2.80;;
4867;SDS011;2448;48.086;10.862;2022-08-18T03:44:22;4.07;;;3.20;;
4867;SDS011;2448;48.086;10.862;2022-08-18T03:46:48;3.63;;;3.07;;
4867;SDS011;2448;48.086;10.862;2022-08-18T03:49:14;2.40;;;2.23;;
4867;SDS011;2448;48.086;10.862;2022-08-18T03:51:41;2.83;;;2.60;;
4867;SDS011;2448;48.086;10.862;2022-08-18T03:54:16;3.60;;;2.93;;
4867;SDS011;2448;48.086;10.862;2022-08-18T03:56:42;4.30;;;3.30;;
4867;SDS011;2448;48.086;10.862;2022-08-18T03:59:12;4.70;;;3.30;;
4867;SDS011;2448;48.086;10.862;2022-08-18T04:01:39;5.20;;;2.70;;
4867;SDS011;2448;48.086;10.862;2022-08-18T04:04:06;4.33;;;3.10;;
4867;SDS011;2448;48.086;10.862;2022-08-18T04:06:36;7.90;;;3.87;;
4867;SDS011;2448;48.086;10.862;2022-08-18T04:09:04;3.07;;;2.60;;
4867;SDS011;2448;48.086;10.862;2022-08-18T04:11:30;4.00;;;3.57;;
4867;SDS011;2448;48.086;10.862;2022-08-18T04:13:56;6.03;;;3.43;;
4867;SDS011;2448;48.086;10.862;2022-08-18T04:16:26;4.50;;;3.63;;
4867;SDS011;2448;48.086;10.862;2022-08-18T04:18:51;4.33;;;3.67;;
4867;SDS011;2448;48.086;10.862;2022-08-18T04:21:17;4.17;;;3.40;;
4867;SDS011;2448;48.086;10.862;2022-08-18T04:23:42;5.37;;;4.10;;
4867;SDS011;2448;48.086;10.862;2022-08-18T04:26:08;7.57;;;4.27;;
4867;SDS011;2448;48.086;10.862;2022-08-18T04:28:35;3.53;;;3.23;;
4867;SDS011;2448;48.086;10.862;2022-08-18T04:31:08;4.60;;;3.77;;
4867;SDS011;2448;48.086;10.862;2022-08-18T04:33:33;5.80;;;4.10;;
4867;SDS011;2448;48.086;10.862;2022-08-18T04:36:05;37.97;;;3.70;;
4867;SDS011;2448;48.086;10.862;2022-08-18T04:38:31;4.37;;;3.20;;
4867;SDS011;2448;48.086;10.862;2022-08-18T04:40:57;7.90;;;3.90;;
4867;SDS011;2448;48.086;10.862;2022-08-18T04:43:22;5.40;;;4.17;;
4867;SDS011;2448;48.086;10.862;2022-08-18T04:45:48;8.73;;;4.30;;
4867;SDS011;2448;48.086;10.862;2022-08-18T04:48:15;4.63;;;3.70;;
4867;SDS011;2448;48.086;10.862;2022-08-18T04:50:41;4.73;;;3.67;;
4867;SDS011;2448;48.086;10.862;2022-08-18T04:53:06;7.07;;;4.97;;
4867;SDS011;2448;48.086;10.862;2022-08-18T04:55:52;8.57;;;4.77;;
4867;SDS011;2448;48.086;10.862;2022-08-18T04:58:18;6.10;;;4.13;;
4867;SDS011;2448;48.086;10.862;2022-08-18T05:00:44;6.13;;;4.50;;
4867;SDS011;2448;48.086;10.862;2022-08-18T05:03:09;6.73;;;3.07;;
4867;SDS011;2448;48.086;10.862;2022-08-18T05:05:35;6.03;;;3.23;;
4867;SDS011;2448;48.086;10.862;2022-08-18T05:08:00;6.37;;;4.30;;
4867;SDS011;2448;48.086;10.862;2022-08-18T05:10:26;4.77;;;4.20;;
4867;SDS011;2448;48.086;10.862;2022-08-18T05:12:51;5.50;;;4.23;;
4867;SDS011;2448;48.086;10.862;2022-08-18T05:15:16;5.77;;;3.50;;
4867;SDS011;2448;48.086;10.862;2022-08-18T05:17:43;5.67;;;4.50;;
4867;SDS011;2448;48.086;10.862;2022-08-18T05:20:08;4.70;;;4.00;;
4867;SDS011;2448;48.086;10.862;2022-08-18T05:22:37;4.37;;;3.97;;
4867;SDS011;2448;48.086;10.862;2022-08-18T05:25:03;5.50;;;4.00;;
4867;SDS011;2448;48.086;10.862;2022-08-18T05:27:30;4.63;;;3.60;;
4867;SDS011;2448;48.086;10.862;2022-08-18T05:29:55;5.87;;;4.30;;
4867;SDS011;2448;48.086;10.862;2022-08-18T05:32:21;4.30;;;3.50;;
4867;SDS011;2448;48.086;10.862;2022-08-18T05:34:46;7.27;;;4.33;;
4867;SDS011;2448;48.086;10.862;2022-08-18T05:37:23;8.23;;;4.73;;
4867;SDS011;2448;48.086;10.862;2022-08-18T05:39:59;11.70;;;3.57;;
4867;SDS011;2448;48.086;10.862;2022-08-18T05:42:25;7.30;;;4.30;;
4867;SDS011;2448;48.086;10.862;2022-08-18T05:44:53;5.53;;;3.53;;
4867;SDS011;2448;48.086;10.862;2022-08-18T05:47:26;7.83;;;4.60;;
4867;SDS011;2448;48.086;10.862;2022-08-18T05:49:52;4.97;;;3.93;;
4867;SDS011;2448;48.086;10.862;2022-08-18T05:52:28;5.33;;;3.83;;
4867;SDS011;2448;48.086;10.862;2022-08-18T05:54:56;6.50;;;4.00;;
4867;SDS011;2448;48.086;10.862;2022-08-18T05:57:44;7.63;;;5.10;;
4867;SDS011;2448;48.086;10.862;2022-08-18T06:00:13;4.87;;;3.77;;
4867;SDS011;2448;48.086;10.862;2022-08-18T06:05:54;4.33;;;3.93;;
4867;SDS011;2448;48.086;10.862;2022-08-18T06:07:57;6.63;;;4.90;;
4867;SDS011;2448;48.086;10.862;2022-08-18T06:10:23;6.00;;;4.10;;
4867;SDS011;2448;48.086;10.862;2022-08-18T06:12:53;4.80;;;3.63;;
4867;SDS011;2448;48.086;10.862;2022-08-18T06:20:44;4.87;;;3.70;;
4867;SDS011;2448;48.086;10.862;2022-08-18T06:23:18;6.53;;;3.80;;
4867;SDS011;2448;48.086;10.862;2022-08-18T06:26:08;9.37;;;4.20;;
4867;SDS011;2448;48.086;10.862;2022-08-18T06:28:50;7.43;;;3.90;;
4867;SDS011;2448;48.086;10.862;2022-08-18T06:31:19;6.43;;;4.40;;
4867;SDS011;2448;48.086;10.862;2022-08-18T06:33:56;6.87;;;4.30;;
4867;SDS011;2448;48.086;10.862;2022-08-18T06:36:32;6.60;;;3.90;;
4867;SDS011;2448;48.086;10.862;2022-08-18T06:46:31;6.07;;;3.70;;
4867;SDS011;2448;48.086;10.862;2022-08-18T06:48:58;5.47;;;4.30;;
4867;SDS011;2448;48.086;10.862;2022-08-18T06:51:27;4.17;;;3.67;;
4867;SDS011;2448;48.086;10.862;2022-08-18T06:53:55;6.17;;;4.13;;
4867;SDS011;2448;48.086;10.862;2022-08-18T06:56:23;6.00;;;3.83;;
4867;SDS011;2448;48.086;10.862;2022-08-18T06:58:49;5.53;;;4.30;;
4867;SDS011;2448;48.086;10.862;2022-08-18T07:01:17;10.77;;;4.30;;
4867;SDS011;2448;48.086;10.862;2022-08-18T07:03:45;4.27;;;3.87;;
4867;SDS011;2448;48.086;10.862;2022-08-18T07:08:47;3.93;;;3.53;;
4867;SDS011;2448;48.086;10.862;2022-08-18T07:13:39;4.93;;;3.63;;
4867;SDS011;2448;48.086;10.862;2022-08-18T07:18:48;5.00;;;3.87;;
4867;SDS011;2448;48.086;10.862;2022-08-18T07:21:31;4.70;;;4.23;;
4867;SDS011;2448;48.086;10.862;2022-08-18T07:24:05;5.77;;;3.60;;
4867;SDS011;2448;48.086;10.862;2022-08-18T07:26:31;6.60;;;4.07;;
4867;SDS011;2448;48.086;10.862;2022-08-18T07:29:16;5.30;;;3.60;;
4867;SDS011;2448;48.086;10.862;2022-08-18T07:31:42;8.23;;;3.73;;
4867;SDS011;2448;48.086;10.862;2022-08-18T07:37:06;6.60;;;3.93;;
4867;SDS011;2448;48.086;10.862;2022-08-18T07:39:35;5.30;;;3.87;;
4867;SDS011;2448;48.086;10.862;2022-08-18T07:44:35;5.57;;;4.37;;
4867;SDS011;2448;48.086;10.862;2022-08-18T07:47:05;5.00;;;4.17;;
4867;SDS011;2448;48.086;10.862;2022-08-18T07:49:33;6.87;;;4.80;;
4867;SDS011;2448;48.086;10.862;2022-08-18T07:52:06;3.57;;;3.23;;
4867;SDS011;2448;48.086;10.862;2022-08-18T07:57:04;4.43;;;3.80;;
4867;SDS011;2448;48.086;10.862;2022-08-18T08:07:08;4.70;;;3.60;;
4867;SDS011;2448;48.086;10.862;2022-08-18T08:14:50;4.93;;;4.10;;
4867;SDS011;2448;48.086;10.862;2022-08-18T08:22:30;9.00;;;4.30;;
4867;SDS011;2448;48.086;10.862;2022-08-18T08:25:02;3.40;;;3.07;;
4867;SDS011;2448;48.086;10.862;2022-08-18T08:27:45;3.87;;;3.47;;
4867;SDS011;2448;48.086;10.862;2022-08-18T08:30:15;4.67;;;3.60;;
4867;SDS011;2448;48.086;10.862;2022-08-18T08:32:55;4.47;;;3.57;;
4867;SDS011;2448;48.086;10.862;2022-08-18T08:35:25;4.53;;;3.50;;
4867;SDS011;2448;48.086;10.862;2022-08-18T08:38:00;3.87;;;3.57;;
4867;SDS011;2448;48.086;10.862;2022-08-18T08:40:27;3.83;;;3.40;;
4867;SDS011;2448;48.086;10.862;2022-08-18T08:42:57;5.83;;;3.23;;
4867;SDS011;2448;48.086;10.862;2022-08-18T08:45:31;5.50;;;3.07;;
4867;SDS011;2448;48.086;10.862;2022-08-18T08:50:28;3.70;;;3.40;;
4867;SDS011;2448;48.086;10.862;2022-08-18T08:55:21;4.43;;;3.37;;
4867;SDS011;2448;48.086;10.862;2022-08-18T08:58:00;4.10;;;3.70;;
4867;SDS011;2448;48.086;10.862;2022-08-18T09:00:26;3.70;;;3.27;;
4867;SDS011;2448;48.086;10.862;2022-08-18T09:02:59;4.23;;;3.70;;
4867;SDS011;2448;48.086;10.862;2022-08-18T09:24:28;4.03;;;3.63;;
4867;SDS011;2448;48.086;10.862;2022-08-18T09:27:37;4.27;;;3.77;;
4867;SDS011;2448;48.086;10.862;2022-08-18T09:34:52;10.33;;;3.73;;
4867;SDS011;2448;48.086;10.862;2022-08-18T09:37:25;5.10;;;4.20;;
4867;SDS011;2448;48.086;10.862;2022-08-18T09:39:58;4.10;;;3.70;;
4867;SDS011;2448;48.086;10.862;2022-08-18T09:45:10;5.47;;;3.87;;
4867;SDS011;2448;48.086;10.862;2022-08-18T09:52:58;3.83;;;3.53;;
4867;SDS011;2448;48.086;10.862;2022-08-18T09:58:46;4.47;;;4.07;;
4867;SDS011;2448;48.086;10.862;2022-08-18T10:00:37;6.13;;;3.87;;
4867;SDS011;2448;48.086;10.862;2022-08-18T10:03:08;6.93;;;3.63;;
4867;SDS011;2448;48.086;10.862;2022-08-18T10:05:35;4.33;;;3.67;;
4867;SDS011;2448;48.086;10.862;2022-08-18T10:10:34;3.77;;;3.47;;
4867;SDS011;2448;48.086;10.862;2022-08-18T10:26:02;3.87;;;3.10;;
4867;SDS011;2448;48.086;10.862;2022-08-18T10:31:12;3.47;;;3.10;;
4867;SDS011;2448;48.086;10.862;2022-08-18T10:33:55;3.43;;;3.17;;
4867;SDS011;2448;48.086;10.862;2022-08-18T10:39:21;7.47;;;5.03;;
4867;SDS011;2448;48.086;10.862;2022-08-18T10:41:55;6.73;;;5.10;;
4867;SDS011;2448;48.086;10.862;2022-08-18T10:44:21;5.23;;;3.80;;
4867;SDS011;2448;48.086;10.862;2022-08-18T10:46:48;4.23;;;3.70;;
4867;SDS011;2448;48.086;10.862;2022-08-18T10:49:15;4.00;;;3.60;;
4867;SDS011;2448;48.086;10.862;2022-08-18T10:51:51;3.67;;;3.37;;
4867;SDS011;2448;48.086;10.862;2022-08-18T10:56:51;3.50;;;3.20;;
4867;SDS011;2448;48.086;10.862;2022-08-18T11:01:50;14.57;;;6.00;;
4867;SDS011;2448;48.086;10.862;2022-08-18T11:04:23;3.43;;;3.23;;
4867;SDS011;2448;48.086;10.862;2022-08-18T11:06:51;3.07;;;2.87;;
4867;SDS011;2448;48.086;10.862;2022-08-18T11:09:24;3.37;;;3.10;;
4867;SDS011;2448;48.086;10.862;2022-08-18T11:11:51;5.67;;;3.73;;
4867;SDS011;2448;48.086;10.862;2022-08-18T11:14:24;3.83;;;3.53;;
4867;SDS011;2448;48.086;10.862;2022-08-18T11:19:38;4.53;;;4.10;;
4867;SDS011;2448;48.086;10.862;2022-08-18T11:22:04;5.30;;;4.20;;
4867;SDS011;2448;48.086;10.862;2022-08-18T11:24:30;4.23;;;3.83;;
4867;SDS011;2448;48.086;10.862;2022-08-18T11:26:59;4.97;;;3.73;;
4867;SDS011;2448;48.086;10.862;2022-08-18T11:32:02;4.23;;;3.83;;
4867;SDS011;2448;48.086;10.862;2022-08-18T11:34:30;4.20;;;3.40;;
4867;SDS011;2448;48.086;10.862;2022-08-18T11:37:00;5.10;;;4.53;;
4867;SDS011;2448;48.086;10.862;2022-08-18T11:39:26;5.30;;;4.03;;
4867;SDS011;2448;48.086;10.862;2022-08-18T11:41:52;4.20;;;3.80;;
4867;SDS011;2448;48.086;10.862;2022-08-18T11:44:19;3.53;;;3.30;;
4867;SDS011;2448;48.086;10.862;2022-08-18T11:46:45;6.87;;;4.30;;
4867;SDS011;2448;48.086;10.862;2022-08-18T11:49:17;3.70;;;3.33;;
4867;SDS011;2448;48.086;10.862;2022-08-18T11:51:56;9.30;;;6.30;;
4867;SDS011;2448;48.086;10.862;2022-08-18T11:54:22;6.50;;;3.67;;
4867;SDS011;2448;48.086;10.862;2022-08-18T11:59:58;4.37;;;3.80;;
4867;SDS011;2448;48.086;10.862;2022-08-18T12:02:24;6.27;;;4.07;;
4867;SDS011;2448;48.086;10.862;2022-08-18T12:04:51;5.77;;;3.87;;
4867;SDS011;2448;48.086;10.862;2022-08-18T12:07:24;5.03;;;4.03;;
4867;SDS011;2448;48.086;10.862;2022-08-18T12:12:43;5.60;;;4.37;;
4867;SDS011;2448;48.086;10.862;2022-08-18T12:17:37;4.30;;;3.00;;
4867;SDS011;2448;48.086;10.862;2022-08-18T12:20:03;4.00;;;3.70;;
4867;SDS011;2448;48.086;10.862;2022-08-18T12:22:32;5.20;;;4.20;;
4867;SDS011;2448;48.086;10.862;2022-08-18T12:24:59;5.43;;;4.37;;
4867;SDS011;2448;48.086;10.862;2022-08-18T12:27:25;5.10;;;4.57;;
4867;SDS011;2448;48.086;10.862;2022-08-18T12:29:51;8.00;;;4.90;;
4867;SDS011;2448;48.086;10.862;2022-08-18T12:32:17;5.93;;;5.27;;
4867;SDS011;2448;48.086;10.862;2022-08-18T12:34:43;6.20;;;4.70;;
4867;SDS011;2448;48.086;10.862;2022-08-18T12:37:09;10.00;;;5.50;;
4867;SDS011;2448;48.086;10.862;2022-08-18T12:39:39;4.73;;;4.23;;
4867;SDS011;2448;48.086;10.862;2022-08-18T12:42:04;5.90;;;4.73;;
4867;SDS011;2448;48.086;10.862;2022-08-18T12:44:30;7.10;;;5.63;;
4867;SDS011;2448;48.086;10.862;2022-08-18T12:46:55;5.70;;;4.70;;
4867;SDS011;2448;48.086;10.862;2022-08-18T12:49:22;9.03;;;5.60;;
4867;SDS011;2448;48.086;10.862;2022-08-18T12:51:48;7.30;;;5.30;;
4867;SDS011;2448;48.086;10.862;2022-08-18T12:54:14;7.83;;;5.80;;
4867;SDS011;2448;48.086;10.862;2022-08-18T12:56:40;7.00;;;5.23;;
4867;SDS011;2448;48.086;10.862;2022-08-18T12:59:07;6.43;;;5.40;;
4867;SDS011;2448;48.086;10.862;2022-08-18T13:01:33;7.13;;;5.27;;
4867;SDS011;2448;48.086;10.862;2022-08-18T13:03:59;8.40;;;5.17;;
4867;SDS011;2448;48.086;10.862;2022-08-18T13:06:25;7.37;;;5.23;;
4867;SDS011;2448;48.086;10.862;2022-08-18T13:08:51;6.87;;;5.30;;
4867;SDS011;2448;48.086;10.862;2022-08-18T13:11:19;8.37;;;5.00;;
4867;SDS011;2448;48.086;10.862;2022-08-18T13:13:44;8.00;;;5.93;;
4867;SDS011;2448;48.086;10.862;2022-08-18T13:16:10;14.83;;;6.50;;
4867;SDS011;2448;48.086;10.862;2022-08-18T13:18:37;8.83;;;5.30;;
4867;SDS011;2448;48.086;10.862;2022-08-18T13:21:04;7.93;;;5.47;;
4867;SDS011;2448;48.086;10.862;2022-08-18T13:23:31;7.70;;;4.60;;
4867;SDS011;2448;48.086;10.862;2022-08-18T13:25:57;7.30;;;5.60;;
4867;SDS011;2448;48.086;10.862;2022-08-18T13:28:23;6.73;;;5.57;;
4867;SDS011;2448;48.086;10.862;2022-08-18T13:30:48;21.27;;;4.87;;
4867;SDS011;2448;48.086;10.862;2022-08-18T13:33:17;5.27;;;4.00;;
4867;SDS011;2448;48.086;10.862;2022-08-18T13:35:43;5.00;;;4.40;;
4867;SDS011;2448;48.086;10.862;2022-08-18T13:38:09;6.53;;;4.70;;
4867;SDS011;2448;48.086;10.862;2022-08-18T13:40:36;9.57;;;5.47;;
4867;SDS011;2448;48.086;10.862;2022-08-18T13:43:01;5.47;;;4.97;;
4867;SDS011;2448;48.086;10.862;2022-08-18T13:45:26;6.67;;;5.23;;
4867;SDS011;2448;48.086;10.862;2022-08-18T13:47:52;6.60;;;4.43;;
4867;SDS011;2448;48.086;10.862;2022-08-18T13:50:17;5.50;;;4.67;;
4867;SDS011;2448;48.086;10.862;2022-08-18T13:52:43;5.73;;;4.90;;
4867;SDS011;2448;48.086;10.862;2022-08-18T13:55:13;6.43;;;5.67;;
4867;SDS011;2448;48.086;10.862;2022-08-18T13:57:39;6.80;;;5.30;;
4867;SDS011;2448;48.086;10.862;2022-08-18T14:00:06;5.10;;;4.60;;
4867;SDS011;2448;48.086;10.862;2022-08-18T14:02:32;6.97;;;5.00;;
4867;SDS011;2448;48.086;10.862;2022-08-18T14:04:58;5.90;;;5.23;;
4867;SDS011;2448;48.086;10.862;2022-08-18T14:07:23;7.10;;;5.10;;
4867;SDS011;2448;48.086;10.862;2022-08-18T14:09:48;7.80;;;5.33;;
4867;SDS011;2448;48.086;10.862;2022-08-18T14:12:21;6.10;;;4.73;;
4867;SDS011;2448;48.086;10.862;2022-08-18T14:14:46;11.83;;;5.13;;
4867;SDS011;2448;48.086;10.862;2022-08-18T14:17:12;5.50;;;4.50;;
4867;SDS011;2448;48.086;10.862;2022-08-18T14:19:37;5.30;;;4.80;;
4867;SDS011;2448;48.086;10.862;2022-08-18T14:22:21;7.90;;;5.03;;
4867;SDS011;2448;48.086;10.862;2022-08-18T14:25:05;7.37;;;5.50;;
4867;SDS011;2448;48.086;10.862;2022-08-18T14:27:49;9.20;;;4.77;;
4867;SDS011;2448;48.086;10.862;2022-08-18T14:30:15;6.17;;;5.00;;
4867;SDS011;2448;48.086;10.862;2022-08-18T14:32:43;8.80;;;5.37;;
4867;SDS011;2448;48.086;10.862;2022-08-18T14:35:09;6.47;;;5.33;;
4867;SDS011;2448;48.086;10.862;2022-08-18T14:37:35;7.53;;;5.23;;
4867;SDS011;2448;48.086;10.862;2022-08-18T14:40:01;6.27;;;5.20;;
4867;SDS011;2448;48.086;10.862;2022-08-18T14:42:26;5.83;;;5.10;;
4867;SDS011;2448;48.086;10.862;2022-08-18T14:44:52;6.80;;;5.70;;
4867;SDS011;2448;48.086;10.862;2022-08-18T14:47:18;6.20;;;5.00;;
4867;SDS011;2448;48.086;10.862;2022-08-18T14:49:43;5.40;;;4.90;;
4867;SDS011;2448;48.086;10.862;2022-08-18T14:52:10;6.50;;;5.40;;
4867;SDS011;2448;48.086;10.862;2022-08-18T14:54:37;6.90;;;4.80;;
4867;SDS011;2448;48.086;10.862;2022-08-18T14:57:03;6.50;;;5.03;;
4867;SDS011;2448;48.086;10.862;2022-08-18T14:59:30;10.00;;;5.30;;
4867;SDS011;2448;48.086;10.862;2022-08-18T15:01:56;7.90;;;5.00;;
4867;SDS011;2448;48.086;10.862;2022-08-18T15:04:22;6.33;;;5.00;;
4867;SDS011;2448;48.086;10.862;2022-08-18T15:06:48;5.60;;;4.80;;
4867;SDS011;2448;48.086;10.862;2022-08-18T15:09:13;7.70;;;5.47;;
4867;SDS011;2448;48.086;10.862;2022-08-18T15:11:39;7.60;;;5.60;;
4867;SDS011;2448;48.086;10.862;2022-08-18T15:14:04;7.00;;;5.10;;
4867;SDS011;2448;48.086;10.862;2022-08-18T15:16:30;5.70;;;4.80;;
4867;SDS011;2448;48.086;10.862;2022-08-18T15:18:58;7.67;;;5.70;;
4867;SDS011;2448;48.086;10.862;2022-08-18T15:21:24;5.27;;;4.57;;
4867;SDS011;2448;48.086;10.862;2022-08-18T15:24:07;7.20;;;5.20;;
4867;SDS011;2448;48.086;10.862;2022-08-18T15:26:52;6.50;;;5.17;;
4867;SDS011;2448;48.086;10.862;2022-08-18T15:29:18;5.90;;;5.10;;
4867;SDS011;2448;48.086;10.862;2022-08-18T15:31:43;7.43;;;5.17;;
4867;SDS011;2448;48.086;10.862;2022-08-18T15:34:09;5.90;;;4.67;;
4867;SDS011;2448;48.086;10.862;2022-08-18T15:36:34;6.00;;;5.10;;
4867;SDS011;2448;48.086;10.862;2022-08-18T15:39:00;10.00;;;6.03;;
4867;SDS011;2448;48.086;10.862;2022-08-18T15:41:32;11.13;;;7.23;;
4867;SDS011;2448;48.086;10.862;2022-08-18T15:43:58;16.73;;;5.97;;
4867;SDS011;2448;48.086;10.862;2022-08-18T15:46:25;12.80;;;6.77;;
4867;SDS011;2448;48.086;10.862;2022-08-18T15:48:50;14.93;;;6.77;;
4867;SDS011;2448;48.086;10.862;2022-08-18T15:51:16;7.43;;;6.27;;
4867;SDS011;2448;48.086;10.862;2022-08-18T15:53:41;10.80;;;6.93;;
4867;SDS011;2448;48.086;10.862;2022-08-18T15:56:11;12.23;;;6.40;;
4867;SDS011;2448;48.086;10.862;2022-08-18T15:58:37;10.47;;;7.33;;
4867;SDS011;2448;48.086;10.862;2022-08-18T16:01:02;14.90;;;7.87;;
4867;SDS011;2448;48.086;10.862;2022-08-18T16:03:32;13.37;;;7.60;;
4867;SDS011;2448;48.086;10.862;2022-08-18T16:05:58;10.80;;;7.77;;
4867;SDS011;2448;48.086;10.862;2022-08-18T16:08:24;18.33;;;8.40;;
4867;SDS011;2448;48.086;10.862;2022-08-18T16:10:50;10.63;;;7.77;;
4867;SDS011;2448;48.086;10.862;2022-08-18T16:13:15;12.43;;;7.17;;
4867;SDS011;2448;48.086;10.862;2022-08-18T16:15:42;11.97;;;7.90;;
4867;SDS011;2448;48.086;10.862;2022-08-18T16:18:08;12.70;;;8.23;;
4867;SDS011;2448;48.086;10.862;2022-08-18T16:20:34;10.53;;;7.53;;
4867;SDS011;2448;48.086;10.862;2022-08-18T16:22:59;12.27;;;8.10;;
4867;SDS011;2448;48.086;10.862;2022-08-18T16:25:25;11.50;;;7.27;;
4867;SDS011;2448;48.086;10.862;2022-08-18T16:27:51;9.23;;;6.60;;
4867;SDS011;2448;48.086;10.862;2022-08-18T16:30:19;11.80;;;7.60;;
4867;SDS011;2448;48.086;10.862;2022-08-18T16:32:45;12.77;;;7.13;;
4867;SDS011;2448;48.086;10.862;2022-08-18T16:35:11;11.53;;;7.57;;
4867;SDS011;2448;48.086;10.862;2022-08-18T16:37:37;15.27;;;8.93;;
4867;SDS011;2448;48.086;10.862;2022-08-18T16:40:02;11.03;;;7.50;;
4867;SDS011;2448;48.086;10.862;2022-08-18T16:42:28;11.13;;;8.00;;
4867;SDS011;2448;48.086;10.862;2022-08-18T16:44:57;10.00;;;7.40;;
4867;SDS011;2448;48.086;10.862;2022-08-18T16:47:22;11.00;;;7.70;;
4867;SDS011;2448;48.086;10.862;2022-08-18T16:49:47;21.83;;;8.50;;
4867;SDS011;2448;48.086;10.862;2022-08-18T16:52:15;12.17;;;7.50;;
4867;SDS011;2448;48.086;10.862;2022-08-18T16:54:41;10.90;;;7.90;;
4867;SDS011;2448;48.086;10.862;2022-08-18T16:57:07;16.13;;;8.67;;
4867;SDS011;2448;48.086;10.862;2022-08-18T16:59:33;6.20;;;4.40;;
4867;SDS011;2448;48.086;10.862;2022-08-18T17:02:16;4.70;;;3.47;;
4867;SDS011;2448;48.086;10.862;2022-08-18T17:05:01;4.33;;;3.57;;
4867;SDS011;2448;48.086;10.862;2022-08-18T17:07:30;5.70;;;4.57;;
4867;SDS011;2448;48.086;10.862;2022-08-18T17:09:56;5.40;;;4.67;;
4867;SDS011;2448;48.086;10.862;2022-08-18T17:12:22;5.20;;;4.40;;
4867;SDS011;2448;48.086;10.862;2022-08-18T17:14:47;4.80;;;3.67;;
4867;SDS011;2448;48.086;10.862;2022-08-18T17:17:13;4.33;;;1.90;;
4867;SDS011;2448;48.086;10.862;2022-08-18T17:19:39;3.63;;;1.73;;